Aérodrome :
LOGIN :

S'inscrire | Disclaimer

   EN    FR    IT 

 










Légende :    VFR   VFR Marginal   IFR   IFR Intensif   IFR Très Intensif
Visi : 
Plafond : 
>= 8 km
>= 3000ft
5 à 8 km
1000 à 3000 ft
1500m à 5 km
500 à 1000 ft
800 à 1500m
200 à 500 ft
< 800m
< 200 ft
Symboles :   Orages  Brouillard  Fortes neiges  Fortes précipitations  Vent > 20 kt
SIGMETs :   Divers  Orages  Givrage  Turbulence  Onde Orograph.  Cendres Volcan.







- Altitude de l'aérodrome : 52 ft
- Code IATA : IOM
- Voir les cartes d'approche


EGNS - Isle of Man

DERNIER METAR :
  • 210720Z 08022KT 9999 BKN020 SCT045 06/02 Q1006 NOSIG

METARs EXPIRÉS :
  • 210650Z 08020KT 050V110 9999 -RA SCT020 BKN030 06/02 Q1005 NOSIG
  • 210620Z 08018KT 050V110 9999 -RA SCT018 OVC025 06/03 Q1006 NOSIG
  • 210550Z 08020KT 9999 -RA BKN018 OVC030 06/03 Q1006 NOSIG
  • 210520Z 09020KT 9999 -RA SCT016 OVC026 06/03 Q1006 NOSIG
  • 210450Z 08020KT 050V110 9999 RA FEW016 BKN020 OVC030 06/03 Q1006

TAF TAF EGNS
Valide du 21 à 06h jusqu'au 21 à 15h UTC


210500Z 2106/2115 08020KT 9999 FEW015 BKN020
TEMPO 2106/2110 8000 -RA
BECMG 2110/2112 12018KT
PROB30
TEMPO 2110/2115 8000 SHRA
Pas de NOTAMs connus pour ce terrain.



MET'MAP, la Météo Aéronautique d'un coup d'oeil ! - Copyright ORBIFLY Décembre 2007 - Disclaimer

ORBIFLY MET'MAP TEAM :

Programmation & Développement : Alexandra Zaïnal
Conception & Développement : Baudouin d'Aumeries
Co-Programmation & Développement : Marc-Olivier Méhu
Soutien technique & logistique : Manuel Goepfert

Contact : metmap@orbifly.com




SOURCES & CREDITS :

   NOAA